sensor_id;sensor_type;location;lat;lon;timestamp;pressure;altitude;pressure_sealevel;temperature;humidity
40708;BME280;26392;42.696;23.350;2023-03-02T00:01:52;95649.69;;;6.14;100.00
40708;BME280;26392;42.696;23.350;2023-03-02T00:04:24;95645.97;;;6.09;100.00
40708;BME280;26392;42.696;23.350;2023-03-02T00:06:54;95638.47;;;6.11;100.00
40708;BME280;26392;42.696;23.350;2023-03-02T00:09:21;95637.50;;;5.98;100.00
40708;BME280;26392;42.696;23.350;2023-03-02T00:11:47;95635.66;;;5.92;100.00
40708;BME280;26392;42.696;23.350;2023-03-02T00:14:12;95637.69;;;6.03;100.00
40708;BME280;26392;42.696;23.350;2023-03-02T00:16:38;95645.97;;;6.09;100.00
40708;BME280;26392;42.696;23.350;2023-03-02T00:19:04;95640.31;;;6.17;100.00
40708;BME280;26392;42.696;23.350;2023-03-02T00:21:30;95632.19;;;6.17;100.00
40708;BME280;26392;42.696;23.350;2023-03-02T00:23:56;95638.19;;;6.19;100.00
40708;BME280;26392;42.696;23.350;2023-03-02T00:26:21;95633.63;;;6.19;100.00
40708;BME280;26392;42.696;23.350;2023-03-02T00:28:46;95627.97;;;6.21;100.00
40708;BME280;26392;42.696;23.350;2023-03-02T00:31:12;95634.63;;;6.25;100.00
40708;BME280;26392;42.696;23.350;2023-03-02T00:33:37;95613.25;;;6.17;100.00
40708;BME280;26392;42.696;23.350;2023-03-02T00:36:03;95613.41;;;6.22;100.00
40708;BME280;26392;42.696;23.350;2023-03-02T00:38:29;95621.09;;;6.25;100.00
40708;BME280;26392;42.696;23.350;2023-03-02T00:40:54;95615.88;;;6.23;100.00
40708;BME280;26392;42.696;23.350;2023-03-02T00:43:21;95592.25;;;6.12;100.00
40708;BME280;26392;42.696;23.350;2023-03-02T00:45:51;95595.47;;;6.02;100.00
40708;BME280;26392;42.696;23.350;2023-03-02T00:48:17;95607.88;;;6.10;100.00
40708;BME280;26392;42.696;23.350;2023-03-02T00:50:42;95606.66;;;6.06;100.00
40708;BME280;26392;42.696;23.350;2023-03-02T00:53:08;95600.19;;;6.07;100.00
40708;BME280;26392;42.696;23.350;2023-03-02T00:55:34;95596.84;;;6.12;100.00
40708;BME280;26392;42.696;23.350;2023-03-02T00:58:00;95593.06;;;6.13;100.00
40708;BME280;26392;42.696;23.350;2023-03-02T01:00:26;95593.06;;;6.13;100.00
40708;BME280;26392;42.696;23.350;2023-03-02T01:02:53;95588.28;;;6.15;100.00
40708;BME280;26392;42.696;23.350;2023-03-02T01:05:18;95588.28;;;6.15;100.00
40708;BME280;26392;42.696;23.350;2023-03-02T01:07:44;95586.63;;;6.14;100.00
40708;BME280;26392;42.696;23.350;2023-03-02T01:10:10;95592.63;;;6.16;100.00
40708;BME280;26392;42.696;23.350;2023-03-02T01:12:35;95584.84;;;6.01;100.00
40708;BME280;26392;42.696;23.350;2023-03-02T01:15:01;95582.38;;;5.93;100.00
40708;BME280;26392;42.696;23.350;2023-03-02T01:17:27;95569.94;;;5.85;100.00
40708;BME280;26392;42.696;23.350;2023-03-02T01:19:53;95576.22;;;5.86;100.00
40708;BME280;26392;42.696;23.350;2023-03-02T01:22:19;95573.72;;;5.84;100.00
40708;BME280;26392;42.696;23.350;2023-03-02T01:24:46;95575.97;;;5.87;100.00
40708;BME280;26392;42.696;23.350;2023-03-02T01:27:11;95576.16;;;5.92;100.00
40708;BME280;26392;42.696;23.350;2023-03-02T01:29:37;95577.31;;;5.78;100.00
40708;BME280;26392;42.696;23.350;2023-03-02T01:32:02;95573.09;;;5.82;100.00
40708;BME280;26392;42.696;23.350;2023-03-02T01:34:28;95579.63;;;5.74;100.00
40708;BME280;26392;42.696;23.350;2023-03-02T01:36:53;95573.34;;;5.74;100.00
40708;BME280;26392;42.696;23.350;2023-03-02T01:39:19;95568.81;;;5.74;100.00
40708;BME280;26392;42.696;23.350;2023-03-02T01:41:48;95557.94;;;5.81;100.00
40708;BME280;26392;42.696;23.350;2023-03-02T01:44:33;95564.50;;;5.92;100.00
40708;BME280;26392;42.696;23.350;2023-03-02T01:46:59;95568.25;;;5.97;100.00
40708;BME280;26392;42.696;23.350;2023-03-02T01:49:25;95565.31;;;5.99;100.00
40708;BME280;26392;42.696;23.350;2023-03-02T01:51:51;95565.72;;;6.02;100.00
40708;BME280;26392;42.696;23.350;2023-03-02T01:54:20;95556.00;;;5.95;100.00
40708;BME280;26392;42.696;23.350;2023-03-02T01:56:49;95565.31;;;5.99;100.00
40708;BME280;26392;42.696;23.350;2023-03-02T01:59:17;95569.88;;;5.98;100.00
40708;BME280;26392;42.696;23.350;2023-03-02T02:01:47;95565.91;;;6.01;100.00
40708;BME280;26392;42.696;23.350;2023-03-02T02:04:15;95563.66;;;5.98;100.00
40708;BME280;26392;42.696;23.350;2023-03-02T02:06:47;95553.69;;;5.92;100.00
40708;BME280;26392;42.696;23.350;2023-03-02T02:09:17;95558.13;;;5.79;100.00
40708;BME280;26392;42.696;23.350;2023-03-02T02:11:45;95555.84;;;5.83;100.00
40708;BME280;26392;42.696;23.350;2023-03-02T02:14:10;95557.56;;;5.77;100.00
40708;BME280;26392;42.696;23.350;2023-03-02T02:16:37;95549.47;;;5.71;100.00
40708;BME280;26392;42.696;23.350;2023-03-02T02:19:09;95557.41;;;5.66;100.00
40708;BME280;26392;42.696;23.350;2023-03-02T02:21:36;95562.41;;;5.69;100.00
40708;BME280;26392;42.696;23.350;2023-03-02T02:26:37;95563.47;;;5.61;100.00
40708;BME280;26392;42.696;23.350;2023-03-02T02:29:23;95554.50;;;5.67;100.00
40708;BME280;26392;42.696;23.350;2023-03-02T02:32:17;95559.63;;;5.75;100.00
40708;BME280;26392;42.696;23.350;2023-03-02T02:34:53;95560.06;;;5.72;100.00
40708;BME280;26392;42.696;23.350;2023-03-02T02:37:29;95561.06;;;5.78;100.00
40708;BME280;26392;42.696;23.350;2023-03-02T02:39:56;95555.22;;;5.81;100.00
40708;BME280;26392;42.696;23.350;2023-03-02T02:42:34;95562.50;;;5.80;100.00
40708;BME280;26392;42.696;23.350;2023-03-02T02:45:04;95549.88;;;5.74;100.00
40708;BME280;26392;42.696;23.350;2023-03-02T02:47:30;95542.84;;;5.67;100.00
40708;BME280;26392;42.696;23.350;2023-03-02T02:49:56;95539.47;;;5.46;100.00
40708;BME280;26392;42.696;23.350;2023-03-02T02:52:24;95543.19;;;5.45;100.00
40708;BME280;26392;42.696;23.350;2023-03-02T02:54:54;95537.84;;;5.38;100.00
40708;BME280;26392;42.696;23.350;2023-03-02T02:57:22;95553.75;;;5.53;100.00
40708;BME280;26392;42.696;23.350;2023-03-02T02:59:52;95543.94;;;5.59;100.00
40708;BME280;26392;42.696;23.350;2023-03-02T03:02:22;95547.44;;;5.66;100.00
40708;BME280;26392;42.696;23.350;2023-03-02T03:04:48;95545.13;;;5.70;100.00
40708;BME280;26392;42.696;23.350;2023-03-02T03:07:23;95539.28;;;5.73;100.00
40708;BME280;26392;42.696;23.350;2023-03-02T03:10:10;95552.34;;;5.76;100.00
40708;BME280;26392;42.696;23.350;2023-03-02T03:12:38;95543.03;;;5.72;100.00
40708;BME280;26392;42.696;23.350;2023-03-02T03:15:05;95539.28;;;5.73;100.00
40708;BME280;26392;42.696;23.350;2023-03-02T03:17:31;95540.53;;;5.70;100.00
40708;BME280;26392;42.696;23.350;2023-03-02T03:19:57;95540.34;;;5.65;100.00
40708;BME280;26392;42.696;23.350;2023-03-02T03:22:31;95537.31;;;5.55;100.00
40708;BME280;26392;42.696;23.350;2023-03-02T03:24:56;95539.78;;;5.56;100.00
40708;BME280;26392;42.696;23.350;2023-03-02T03:27:22;95539.63;;;5.51;100.00
40708;BME280;26392;42.696;23.350;2023-03-02T03:29:48;95549.97;;;5.61;100.00
40708;BME280;26392;42.696;23.350;2023-03-02T03:32:14;95541.19;;;5.66;100.00
40708;BME280;26392;42.696;23.350;2023-03-02T03:34:40;95538.66;;;5.71;100.00
40708;BME280;26392;42.696;23.350;2023-03-02T03:37:10;95541.78;;;5.74;100.00
40708;BME280;26392;42.696;23.350;2023-03-02T03:39:36;95540.06;;;5.80;100.00
40708;BME280;26392;42.696;23.350;2023-03-02T03:42:03;95544.41;;;5.81;100.00
40708;BME280;26392;42.696;23.350;2023-03-02T03:44:29;95533.41;;;5.76;100.00
40708;BME280;26392;42.696;23.350;2023-03-02T03:46:54;95546.84;;;5.89;100.00
40708;BME280;26392;42.696;23.350;2023-03-02T03:49:20;95542.09;;;5.84;100.00
40708;BME280;26392;42.696;23.350;2023-03-02T03:51:45;95547.66;;;5.90;100.00
40708;BME280;26392;42.696;23.350;2023-03-02T03:54:11;95548.09;;;5.93;100.00
40708;BME280;26392;42.696;23.350;2023-03-02T03:56:40;95545.38;;;5.93;100.00
40708;BME280;26392;42.696;23.350;2023-03-02T03:59:08;95553.91;;;5.97;100.00
40708;BME280;26392;42.696;23.350;2023-03-02T04:04:01;95546.03;;;5.89;100.00
40708;BME280;26392;42.696;23.350;2023-03-02T04:06:26;95551.63;;;5.87;100.00
40708;BME280;26392;42.696;23.350;2023-03-02T04:08:52;95549.03;;;5.74;100.00
40708;BME280;26392;42.696;23.350;2023-03-02T04:11:17;95541.34;;;5.71;100.00
40708;BME280;26392;42.696;23.350;2023-03-02T04:13:43;95549.72;;;5.63;100.00
40708;BME280;26392;42.696;23.350;2023-03-02T04:16:08;95537.53;;;5.53;100.00
40708;BME280;26392;42.696;23.350;2023-03-02T04:18:33;95540.75;;;5.37;100.00
40708;BME280;26392;42.696;23.350;2023-03-02T04:20:59;95542.81;;;5.42;100.00
40708;BME280;26392;42.696;23.350;2023-03-02T04:23:24;95540.97;;;5.35;100.00
40708;BME280;26392;42.696;23.350;2023-03-02T04:25:50;95538.72;;;5.26;100.00
40708;BME280;26392;42.696;23.350;2023-03-02T04:28:15;95540.16;;;5.35;100.00
40708;BME280;26392;42.696;23.350;2023-03-02T04:30:41;95536.22;;;5.31;100.00
40708;BME280;26392;42.696;23.350;2023-03-02T04:33:07;95528.13;;;5.31;100.00
40708;BME280;26392;42.696;23.350;2023-03-02T04:35:33;95542.44;;;5.38;100.00
40708;BME280;26392;42.696;23.350;2023-03-02T04:37:59;95538.28;;;5.29;100.00
40708;BME280;26392;42.696;23.350;2023-03-02T04:40:24;95527.94;;;5.26;100.00
40708;BME280;26392;42.696;23.350;2023-03-02T04:42:50;95539.78;;;5.25;100.00
40708;BME280;26392;42.696;23.350;2023-03-02T04:45:15;95544.81;;;5.21;100.00
40708;BME280;26392;42.696;23.350;2023-03-02T04:47:41;95554.13;;;5.25;100.00
40708;BME280;26392;42.696;23.350;2023-03-02T04:50:08;95551.22;;;5.27;100.00
40708;BME280;26392;42.696;23.350;2023-03-02T04:52:36;95548.66;;;5.32;100.00
40708;BME280;26392;42.696;23.350;2023-03-02T04:55:01;95540.63;;;5.25;100.00
40708;BME280;26392;42.696;23.350;2023-03-02T04:57:27;95553.31;;;5.25;100.00
40708;BME280;26392;42.696;23.350;2023-03-02T04:59:52;95556.63;;;5.27;100.00
40708;BME280;26392;42.696;23.350;2023-03-02T05:02:17;95540.41;;;5.27;100.00
40708;BME280;26392;42.696;23.350;2023-03-02T05:04:43;95555.94;;;5.31;100.00
40708;BME280;26392;42.696;23.350;2023-03-02T05:07:08;95550.53;;;5.38;100.00
40708;BME280;26392;42.696;23.350;2023-03-02T05:09:34;95550.91;;;5.42;100.00
40708;BME280;26392;42.696;23.350;2023-03-02T05:11:59;95552.75;;;5.48;100.00
40708;BME280;26392;42.696;23.350;2023-03-02T05:14:26;95544.03;;;5.46;100.00
40708;BME280;26392;42.696;23.350;2023-03-02T05:16:51;95558.91;;;5.61;100.00
40708;BME280;26392;42.696;23.350;2023-03-02T05:19:18;95548.69;;;5.64;100.00
40708;BME280;26392;42.696;23.350;2023-03-02T05:21:43;95572.09;;;5.76;100.00
40708;BME280;26392;42.696;23.350;2023-03-02T05:24:10;95562.53;;;5.74;100.00
40708;BME280;26392;42.696;23.350;2023-03-02T05:26:36;95561.50;;;5.75;100.00
40708;BME280;26392;42.696;23.350;2023-03-02T05:29:02;95563.41;;;5.74;100.00
40708;BME280;26392;42.696;23.350;2023-03-02T05:31:36;95560.81;;;5.86;100.00
40708;BME280;26392;42.696;23.350;2023-03-02T05:34:04;95563.16;;;5.76;100.00
40708;BME280;26392;42.696;23.350;2023-03-02T05:36:29;95570.56;;;5.87;100.00
40708;BME280;26392;42.696;23.350;2023-03-02T05:38:55;95569.50;;;5.95;100.00
40708;BME280;26392;42.696;23.350;2023-03-02T05:41:20;95564.66;;;6.03;100.00
40708;BME280;26392;42.696;23.350;2023-03-02T05:43:46;95573.03;;;6.20;100.00
40708;BME280;26392;42.696;23.350;2023-03-02T05:46:11;95563.94;;;6.15;100.00
40708;BME280;26392;42.696;23.350;2023-03-02T05:48:37;95574.91;;;5.95;100.00
40708;BME280;26392;42.696;23.350;2023-03-02T05:51:02;95578.69;;;5.87;100.00
40708;BME280;26392;42.696;23.350;2023-03-02T05:53:28;95579.91;;;5.91;100.00
40708;BME280;26392;42.696;23.350;2023-03-02T05:55:54;95575.59;;;5.83;100.00
40708;BME280;26392;42.696;23.350;2023-03-02T05:58:20;95583.31;;;5.80;100.00
40708;BME280;26392;42.696;23.350;2023-03-02T06:00:46;95571.97;;;5.96;100.00
40708;BME280;26392;42.696;23.350;2023-03-02T06:03:12;95582.09;;;6.08;100.00
40708;BME280;26392;42.696;23.350;2023-03-02T06:05:38;95579.06;;;6.22;100.00
40708;BME280;26392;42.696;23.350;2023-03-02T06:08:04;95581.78;;;6.22;100.00
40708;BME280;26392;42.696;23.350;2023-03-02T06:10:29;95575.66;;;6.09;100.00
40708;BME280;26392;42.696;23.350;2023-03-02T06:12:55;95584.69;;;6.21;100.00
40708;BME280;26392;42.696;23.350;2023-03-02T06:15:21;95589.38;;;6.07;100.00
40708;BME280;26392;42.696;23.350;2023-03-02T06:17:47;95576.84;;;6.13;100.00
40708;BME280;26392;42.696;23.350;2023-03-02T06:20:13;95586.03;;;6.12;100.00
40708;BME280;26392;42.696;23.350;2023-03-02T06:22:43;95595.56;;;6.14;100.00
40708;BME280;26392;42.696;23.350;2023-03-02T06:25:22;95596.06;;;6.30;100.00
40708;BME280;26392;42.696;23.350;2023-03-02T06:27:48;95581.88;;;6.34;100.00
40708;BME280;26392;42.696;23.350;2023-03-02T06:30:17;95594.06;;;6.43;100.00
40708;BME280;26392;42.696;23.350;2023-03-02T06:32:43;95592.59;;;6.47;100.00
40708;BME280;26392;42.696;23.350;2023-03-02T06:35:10;95596.88;;;6.55;100.00
40708;BME280;26392;42.696;23.350;2023-03-02T06:37:36;95598.41;;;6.69;100.00
40708;BME280;26392;42.696;23.350;2023-03-02T06:40:02;95602.25;;;6.80;100.00
40708;BME280;26392;42.696;23.350;2023-03-02T06:42:39;95597.88;;;6.79;100.00
40708;BME280;26392;42.696;23.350;2023-03-02T06:45:06;95592.53;;;6.91;100.00
40708;BME280;26392;42.696;23.350;2023-03-02T06:47:32;95584.19;;;6.74;100.00
40708;BME280;26392;42.696;23.350;2023-03-02T06:49:58;95586.69;;;6.76;100.00
40708;BME280;26392;42.696;23.350;2023-03-02T06:52:23;95584.97;;;6.81;100.00
40708;BME280;26392;42.696;23.350;2023-03-02T06:54:49;95602.34;;;6.92;100.00
40708;BME280;26392;42.696;23.350;2023-03-02T06:57:14;95599.91;;;7.02;100.00
40708;BME280;26392;42.696;23.350;2023-03-02T06:59:40;95595.41;;;7.14;100.00
40708;BME280;26392;42.696;23.350;2023-03-02T07:02:05;95587.44;;;7.01;100.00
40708;BME280;26392;42.696;23.350;2023-03-02T07:04:31;95590.22;;;6.94;100.00
40708;BME280;26392;42.696;23.350;2023-03-02T07:06:57;95593.63;;;6.90;100.00
40708;BME280;26392;42.696;23.350;2023-03-02T07:09:22;95593.59;;;6.71;100.00
40708;BME280;26392;42.696;23.350;2023-03-02T07:11:48;95589.97;;;6.78;100.00
40708;BME280;26392;42.696;23.350;2023-03-02T07:14:13;95584.13;;;6.81;100.00
40708;BME280;26392;42.696;23.350;2023-03-02T07:16:39;95593.16;;;6.93;100.00
40708;BME280;26392;42.696;23.350;2023-03-02T07:19:04;95578.72;;;6.81;100.00
40708;BME280;26392;42.696;23.350;2023-03-02T07:21:30;95591.72;;;6.90;100.00
40708;BME280;26392;42.696;23.350;2023-03-02T07:23:55;95594.13;;;6.99;100.00
40708;BME280;26392;42.696;23.350;2023-03-02T07:26:21;95594.97;;;6.99;100.00
40708;BME280;26392;42.696;23.350;2023-03-02T07:28:46;95589.09;;;7.02;100.00
40708;BME280;26392;42.696;23.350;2023-03-02T07:31:11;95601.97;;;7.07;100.00
40708;BME280;26392;42.696;23.350;2023-03-02T07:33:38;95584.94;;;7.00;100.00
40708;BME280;26392;42.696;23.350;2023-03-02T07:36:04;95600.44;;;7.11;100.00
40708;BME280;26392;42.696;23.350;2023-03-02T07:38:30;95596.47;;;7.13;100.00
40708;BME280;26392;42.696;23.350;2023-03-02T07:40:56;95588.34;;;6.95;100.00
40708;BME280;26392;42.696;23.350;2023-03-02T07:43:21;95586.53;;;7.07;100.00
40708;BME280;26392;42.696;23.350;2023-03-02T07:45:49;95590.88;;;7.08;100.00
40708;BME280;26392;42.696;23.350;2023-03-02T07:48:15;95587.06;;;7.16;100.00
40708;BME280;26392;42.696;23.350;2023-03-02T07:50:40;95599.25;;;7.07;100.00
40708;BME280;26392;42.696;23.350;2023-03-02T07:53:06;95596.25;;;7.15;100.00
40708;BME280;26392;42.696;23.350;2023-03-02T07:55:31;95598.13;;;7.14;100.00
40708;BME280;26392;42.696;23.350;2023-03-02T07:57:57;95595.03;;;7.11;100.00
40708;BME280;26392;42.696;23.350;2023-03-02T08:00:22;95589.59;;;7.11;100.00
40708;BME280;26392;42.696;23.350;2023-03-02T08:02:48;95592.41;;;7.23;100.00
40708;BME280;26392;42.696;23.350;2023-03-02T08:05:13;95590.66;;;7.28;100.00
40708;BME280;26392;42.696;23.350;2023-03-02T08:07:40;95590.38;;;7.18;100.00
40708;BME280;26392;42.696;23.350;2023-03-02T08:10:06;95580.72;;;7.22;100.00
40708;BME280;26392;42.696;23.350;2023-03-02T08:12:32;95590.13;;;7.20;100.00
40708;BME280;26392;42.696;23.350;2023-03-02T08:14:57;95585.63;;;7.13;100.00
40708;BME280;26392;42.696;23.350;2023-03-02T08:17:23;95587.06;;;7.16;100.00
40708;BME280;26392;42.696;23.350;2023-03-02T08:19:48;95576.56;;;7.20;100.00
40708;BME280;26392;42.696;23.350;2023-03-02T08:22:14;95572.97;;;7.26;100.00
40708;BME280;26392;42.696;23.350;2023-03-02T08:24:39;95562.72;;;7.28;100.00
40708;BME280;26392;42.696;23.350;2023-03-02T08:27:06;95579.63;;;7.42;100.00
40708;BME280;26392;42.696;23.350;2023-03-02T08:29:32;95570.28;;;7.26;100.00
40708;BME280;26392;42.696;23.350;2023-03-02T08:31:58;95584.34;;;7.34;100.00
40708;BME280;26392;42.696;23.350;2023-03-02T08:34:24;95578.41;;;7.26;100.00
40708;BME280;26392;42.696;23.350;2023-03-02T08:36:51;95581.88;;;6.96;100.00
40708;BME280;26392;42.696;23.350;2023-03-02T08:39:16;95586.00;;;7.17;100.00
40708;BME280;26392;42.696;23.350;2023-03-02T08:41:43;95589.44;;;7.24;100.00
40708;BME280;26392;42.696;23.350;2023-03-02T08:44:08;95579.63;;;7.42;100.00
40708;BME280;26392;42.696;23.350;2023-03-02T08:46:34;95578.66;;;7.36;100.00
40708;BME280;26392;42.696;23.350;2023-03-02T08:48:59;95569.41;;;7.44;100.00
40708;BME280;26392;42.696;23.350;2023-03-02T08:51:25;95574.97;;;7.30;100.00
40708;BME280;26392;42.696;23.350;2023-03-02T08:53:52;95572.53;;;7.29;100.00
40708;BME280;26392;42.696;23.350;2023-03-02T08:56:25;95568.38;;;7.08;100.00
40708;BME280;26392;42.696;23.350;2023-03-02T08:58:52;95575.19;;;7.17;100.00
40708;BME280;26392;42.696;23.350;2023-03-02T09:01:21;95576.00;;;7.48;100.00
40708;BME280;26392;42.696;23.350;2023-03-02T09:03:47;95558.53;;;7.62;100.00
40708;BME280;26392;42.696;23.350;2023-03-02T09:06:13;95563.06;;;7.92;100.00
40708;BME280;26392;42.696;23.350;2023-03-02T09:08:38;95547.28;;;8.12;100.00
40708;BME280;26392;42.696;23.350;2023-03-02T09:11:04;95565.59;;;8.28;100.00
40708;BME280;26392;42.696;23.350;2023-03-02T09:13:29;95563.75;;;8.29;100.00
40708;BME280;26392;42.696;23.350;2023-03-02T09:15:55;95555.34;;;8.07;100.00
40708;BME280;26392;42.696;23.350;2023-03-02T09:18:20;95566.91;;;8.26;100.00
40708;BME280;26392;42.696;23.350;2023-03-02T09:20:50;95568.63;;;7.97;100.00
40708;BME280;26392;42.696;23.350;2023-03-02T09:23:16;95565.34;;;8.06;100.00
40708;BME280;26392;42.696;23.350;2023-03-02T09:25:41;95575.97;;;8.20;100.00
40708;BME280;26392;42.696;23.350;2023-03-02T09:28:09;95565.50;;;8.23;100.00
40708;BME280;26392;42.696;23.350;2023-03-02T09:30:34;95568.91;;;8.19;100.00
40708;BME280;26392;42.696;23.350;2023-03-02T09:33:00;95568.56;;;8.15;100.00
40708;BME280;26392;42.696;23.350;2023-03-02T09:35:25;95560.53;;;8.20;100.00
40708;BME280;26392;42.696;23.350;2023-03-02T09:37:51;95567.84;;;8.20;100.00
40708;BME280;26392;42.696;23.350;2023-03-02T09:40:21;95557.47;;;8.28;100.00
40708;BME280;26392;42.696;23.350;2023-03-02T09:56:46;95552.88;;;7.75;100.00
40708;BME280;26392;42.696;23.350;2023-03-02T09:59:38;95553.94;;;7.74;100.00
40708;BME280;26392;42.696;23.350;2023-03-02T10:05:01;95550.31;;;7.92;100.00
40708;BME280;26392;42.696;23.350;2023-03-02T10:07:34;95544.94;;;8.04;100.00
40708;BME280;26392;42.696;23.350;2023-03-02T10:10:12;95554.66;;;8.23;100.00
40708;BME280;26392;42.696;23.350;2023-03-02T10:24:39;95553.72;;;8.53;100.00
40708;BME280;26392;42.696;23.350;2023-03-02T10:27:24;95561.19;;;8.46;100.00
40708;BME280;26392;42.696;23.350;2023-03-02T10:29:54;95560.38;;;8.57;100.00
40708;BME280;26392;42.696;23.350;2023-03-02T10:32:24;95556.94;;;8.50;100.00
40708;BME280;26392;42.696;23.350;2023-03-02T10:34:52;95548.50;;;8.16;100.00
40708;BME280;26392;42.696;23.350;2023-03-02T10:37:21;95547.56;;;7.69;100.00
40708;BME280;26392;42.696;23.350;2023-03-02T10:39:52;95545.78;;;7.62;100.00
40708;BME280;26392;42.696;23.350;2023-03-02T10:42:21;95547.56;;;7.69;100.00
40708;BME280;26392;42.696;23.350;2023-03-02T10:44:51;95541.38;;;7.50;100.00
40708;BME280;26392;42.696;23.350;2023-03-02T10:47:24;95546.47;;;7.58;100.00
40708;BME280;26392;42.696;23.350;2023-03-02T10:49:52;95536.09;;;7.55;100.00
40708;BME280;26392;42.696;23.350;2023-03-02T10:52:20;95550.25;;;7.57;100.00
40708;BME280;26392;42.696;23.350;2023-03-02T10:54:47;95538.94;;;7.60;100.00
40708;BME280;26392;42.696;23.350;2023-03-02T10:57:36;95535.28;;;7.66;100.00
40708;BME280;26392;42.696;23.350;2023-03-02T11:00:32;95536.88;;;7.85;100.00
40708;BME280;26392;42.696;23.350;2023-03-02T11:03:03;95528.72;;;7.74;100.00
40708;BME280;26392;42.696;23.350;2023-03-02T11:05:38;95527.16;;;7.66;100.00
40708;BME280;26392;42.696;23.350;2023-03-02T11:08:16;95534.28;;;7.79;100.00
40708;BME280;26392;42.696;23.350;2023-03-02T11:13:23;95521.41;;;7.86;100.00
40708;BME280;26392;42.696;23.350;2023-03-02T11:16:35;95520.97;;;8.01;100.00
40708;BME280;26392;42.696;23.350;2023-03-02T11:21:28;95516.91;;;8.45;100.00
40708;BME280;26392;42.696;23.350;2023-03-02T11:26:38;95511.34;;;8.64;100.00
40708;BME280;26392;42.696;23.350;2023-03-02T11:31:50;95504.88;;;9.05;100.00
40708;BME280;26392;42.696;23.350;2023-03-02T11:37:03;95497.66;;;9.11;100.00
40708;BME280;26392;42.696;23.350;2023-03-02T11:42:20;95497.34;;;8.95;100.00
40708;BME280;26392;42.696;23.350;2023-03-02T11:44:47;95488.50;;;8.88;100.00
40708;BME280;26392;42.696;23.350;2023-03-02T11:47:14;95499.72;;;8.92;100.00
40708;BME280;26392;42.696;23.350;2023-03-02T11:49:44;95500.44;;;8.76;100.00
40708;BME280;26392;42.696;23.350;2023-03-02T11:52:31;95491.84;;;8.67;100.00
40708;BME280;26392;42.696;23.350;2023-03-02T11:55:03;95490.66;;;8.74;100.00
40708;BME280;26392;42.696;23.350;2023-03-02T11:57:38;95487.34;;;8.72;100.00
40708;BME280;26392;42.696;23.350;2023-03-02T12:00:12;95492.44;;;8.45;100.00
40708;BME280;26392;42.696;23.350;2023-03-02T12:02:39;95507.44;;;8.24;100.00
40708;BME280;26392;42.696;23.350;2023-03-02T12:05:26;95487.25;;;7.97;100.00
40708;BME280;26392;42.696;23.350;2023-03-02T12:08:28;95496.09;;;8.04;100.00
40708;BME280;26392;42.696;23.350;2023-03-02T12:13:34;95502.91;;;8.06;100.00
40708;BME280;26392;42.696;23.350;2023-03-02T12:16:00;95506.38;;;8.14;100.00
40708;BME280;26392;42.696;23.350;2023-03-02T12:18:40;95503.72;;;7.95;100.00
40708;BME280;26392;42.696;23.350;2023-03-02T12:23:52;95495.25;;;8.03;100.00
40708;BME280;26392;42.696;23.350;2023-03-02T12:31:49;95491.38;;;7.88;100.00
40708;BME280;26392;42.696;23.350;2023-03-02T12:34:35;95483.44;;;7.86;100.00
40708;BME280;26392;42.696;23.350;2023-03-02T12:39:48;95483.69;;;7.96;100.00
40708;BME280;26392;42.696;23.350;2023-03-02T12:44:52;95481.00;;;8.20;100.00
40708;BME280;26392;42.696;23.350;2023-03-02T12:47:25;95491.50;;;8.28;100.00
40708;BME280;26392;42.696;23.350;2023-03-02T12:49:59;95477.00;;;8.46;100.00
40708;BME280;26392;42.696;23.350;2023-03-02T12:52:30;95493.31;;;8.46;100.00
40708;BME280;26392;42.696;23.350;2023-03-02T12:55:04;95473.34;;;8.40;100.00
40708;BME280;26392;42.696;23.350;2023-03-02T12:57:30;95487.03;;;8.45;100.00
40708;BME280;26392;42.696;23.350;2023-03-02T12:59:59;95472.28;;;8.53;100.00
40708;BME280;26392;42.696;23.350;2023-03-02T13:02:35;95476.22;;;8.86;100.00
40708;BME280;26392;42.696;23.350;2023-03-02T13:07:39;95464.53;;;8.85;100.00
40708;BME280;26392;42.696;23.350;2023-03-02T13:10:21;95458.19;;;9.08;100.00
40708;BME280;26392;42.696;23.350;2023-03-02T13:12:49;95467.03;;;9.44;100.00
40708;BME280;26392;42.696;23.350;2023-03-02T13:15:15;95466.88;;;9.68;100.00
40708;BME280;26392;42.696;23.350;2023-03-02T13:17:42;95461.28;;;9.91;100.00
40708;BME280;26392;42.696;23.350;2023-03-02T13:20:11;95439.84;;;9.61;100.00
40708;BME280;26392;42.696;23.350;2023-03-02T13:22:37;95449.34;;;9.30;100.00
40708;BME280;26392;42.696;23.350;2023-03-02T13:25:05;95449.13;;;9.03;100.00
40708;BME280;26392;42.696;23.350;2023-03-02T13:27:33;95452.81;;;8.85;100.00
40708;BME280;26392;42.696;23.350;2023-03-02T13:30:24;95447.16;;;8.46;100.00
40708;BME280;26392;42.696;23.350;2023-03-02T13:32:50;95450.44;;;8.24;100.00
40708;BME280;26392;42.696;23.350;2023-03-02T13:35:25;95443.00;;;8.20;100.00
40708;BME280;26392;42.696;23.350;2023-03-02T13:38:19;95431.81;;;8.04;100.00
40708;BME280;26392;42.696;23.350;2023-03-02T13:40:47;95430.72;;;8.05;100.00
40708;BME280;26392;42.696;23.350;2023-03-02T13:45:57;95431.06;;;8.09;100.00
40708;BME280;26392;42.696;23.350;2023-03-02T13:48:23;95423.06;;;8.14;100.00
40708;BME280;26392;42.696;23.350;2023-03-02T13:50:51;95434.72;;;8.15;100.00
40708;BME280;26392;42.696;23.350;2023-03-02T13:53:17;95431.66;;;8.11;100.00
40708;BME280;26392;42.696;23.350;2023-03-02T13:55:43;95431.44;;;8.24;100.00
40708;BME280;26392;42.696;23.350;2023-03-02T13:58:14;95432.59;;;8.17;100.00
40708;BME280;26392;42.696;23.350;2023-03-02T14:00:40;95428.94;;;8.23;100.00
40708;BME280;26392;42.696;23.350;2023-03-02T14:03:22;95432.72;;;8.34;100.00
40708;BME280;26392;42.696;23.350;2023-03-02T14:05:48;95424.09;;;8.37;100.00
40708;BME280;26392;42.696;23.350;2023-03-02T14:08:13;95410.25;;;8.62;100.00